Time,TemperatureF,DewpointF,PressureIn,WindDirection,WindDirectionDegrees,WindSpeedMPH,WindSpeedGustMPH,Humidity,HourlyPrecipIn,Conditions,Clouds,dailyrainin,SoftwareType,DateUTC
2013-07-31 00:04:00,60.4,39.6,30.03,NNW,336,1.0,3.0,46,0.00,,,0.00,meteohub,2013-07-31 06:04:00,
2013-07-31 00:09:00,59.7,39.4,30.03,NNW,335,4.0,4.0,47,0.00,,,0.00,meteohub,2013-07-31 06:09:00,
2013-07-31 00:14:00,59.9,39.6,30.03,NNW,330,1.0,5.0,47,0.00,,,0.00,meteohub,2013-07-31 06:14:00,
2013-07-31 00:19:00,60.3,39.4,30.03,NNW,332,4.0,5.0,46,0.00,,,0.00,meteohub,2013-07-31 06:19:00,
2013-07-31 00:24:00,60.3,39.4,30.03,NW,326,3.0,5.0,46,0.00,,,0.00,meteohub,2013-07-31 06:24:00,
2013-07-31 00:30:00,60.3,39.4,30.03,NNW,330,3.0,5.0,46,0.00,,,0.00,meteohub,2013-07-31 06:30:00,
2013-07-31 00:35:00,60.6,38.7,30.03,NNW,330,4.0,5.0,44,0.00,,,0.00,meteohub,2013-07-31 06:35:00,
2013-07-31 00:40:00,60.8,38.7,30.03,NNW,332,3.0,5.0,44,0.00,,,0.00,meteohub,2013-07-31 06:40:00,
2013-07-31 00:45:00,60.6,38.7,30.03,NNW,336,3.0,5.0,44,0.00,,,0.00,meteohub,2013-07-31 06:45:00,
2013-07-31 00:50:00,60.3,38.8,30.03,North,349,4.0,5.0,45,0.00,,,0.00,meteohub,2013-07-31 06:50:00,
2013-07-31 00:55:00,59.7,38.3,30.03,NNW,336,5.0,5.0,45,0.00,,,0.00,meteohub,2013-07-31 06:55:00,
2013-07-31 01:00:00,59.0,38.8,30.03,NNW,330,5.0,6.0,47,0.00,,,0.00,meteohub,2013-07-31 07:00:00,
2013-07-31 01:06:00,58.5,39.4,30.03,NNW,334,6.0,7.0,49,0.00,,,0.00,meteohub,2013-07-31 07:06:00,
2013-07-31 01:11:00,57.6,38.5,30.03,NW,326,4.0,7.0,49,0.00,,,0.00,meteohub,2013-07-31 07:11:00,
2013-07-31 01:16:00,57.0,38.5,30.03,NNW,332,4.0,6.0,50,0.00,,,0.00,meteohub,2013-07-31 07:16:00,
2013-07-31 01:21:00,57.4,37.9,30.03,NW,314,3.0,6.0,48,0.00,,,0.00,meteohub,2013-07-31 07:21:00,
2013-07-31 01:26:00,57.9,37.2,30.03,NW,326,4.0,6.0,46,0.00,,,0.00,meteohub,2013-07-31 07:26:00,
2013-07-31 01:31:00,58.6,36.9,30.03,NNW,329,6.0,6.0,44,0.00,,,0.00,meteohub,2013-07-31 07:31:00,
2013-07-31 01:36:00,58.6,35.6,30.03,NNW,330,6.0,6.0,42,0.00,,,0.00,meteohub,2013-07-31 07:36:00,
2013-07-31 01:41:00,57.6,35.2,30.03,NW,326,6.0,8.0,43,0.00,,,0.00,meteohub,2013-07-31 07:41:00,
2013-07-31 01:46:00,57.6,35.2,30.03,NNW,333,7.0,10.0,43,0.00,,,0.00,meteohub,2013-07-31 07:46:00,
2013-07-31 01:52:00,57.7,35.4,30.03,NW,322,8.0,10.0,43,0.00,,,0.00,meteohub,2013-07-31 07:52:00,
2013-07-31 01:57:00,58.5,35.4,30.03,NNW,329,8.0,10.0,42,0.00,,,0.00,meteohub,2013-07-31 07:57:00,
2013-07-31 02:02:00,58.5,36.0,30.03,NNW,333,6.0,10.0,43,0.00,,,0.00,meteohub,2013-07-31 08:02:00,
2013-07-31 02:07:00,57.7,36.5,30.03,NW,326,5.0,10.0,45,0.00,,,0.00,meteohub,2013-07-31 08:07:00,
2013-07-31 02:12:00,57.4,35.6,30.03,NW,318,3.0,10.0,44,0.00,,,0.00,meteohub,2013-07-31 08:12:00,
2013-07-31 02:17:00,57.0,37.0,30.03,NNW,333,5.0,8.0,47,0.00,,,0.00,meteohub,2013-07-31 08:17:00,
2013-07-31 02:22:00,55.8,37.9,30.03,NNW,345,6.0,8.0,51,0.00,,,0.00,meteohub,2013-07-31 08:22:00,
2013-07-31 02:27:00,54.1,40.1,30.03,NNW,327,7.0,9.0,59,0.00,,,0.00,meteohub,2013-07-31 08:27:00,
2013-07-31 02:32:00,53.1,40.5,30.03,NNW,333,6.0,10.0,62,0.00,,,0.00,meteohub,2013-07-31 08:32:00,
2013-07-31 02:37:00,53.2,38.8,30.03,NW,325,7.0,10.0,58,0.00,,,0.00,meteohub,2013-07-31 08:37:00,
2013-07-31 02:43:00,54.0,38.1,30.03,NW,314,7.0,10.0,55,0.00,,,0.00,meteohub,2013-07-31 08:43:00,
2013-07-31 02:48:00,54.1,37.4,30.03,NW,325,6.0,10.0,53,0.00,,,0.00,meteohub,2013-07-31 08:48:00,
2013-07-31 02:53:00,54.3,36.5,30.03,NW,322,6.0,10.0,51,0.00,,,0.00,meteohub,2013-07-31 08:53:00,
2013-07-31 02:58:00,54.5,36.3,30.03,NNW,329,5.0,10.0,50,0.00,,,0.00,meteohub,2013-07-31 08:58:00,
2013-07-31 03:03:00,54.7,36.9,30.03,NNW,333,3.0,7.0,51,0.00,,,0.00,meteohub,2013-07-31 09:03:00,
2013-07-31 03:09:00,54.5,36.3,30.03,NW,326,7.0,7.0,50,0.00,,,0.00,meteohub,2013-07-31 09:09:00,
2013-07-31 03:10:00,54.7,36.3,30.03,NNW,337,6.0,6.0,50,0.00,,,0.00,meteohub,2013-07-31 09:10:00,
2013-07-31 03:15:00,55.0,36.1,30.03,NNW,335,8.0,8.0,49,0.00,,,0.00,meteohub,2013-07-31 09:15:00,
2013-07-31 03:20:00,54.9,36.1,30.03,NW,325,6.0,7.0,49,0.00,,,0.00,meteohub,2013-07-31 09:20:00,
2013-07-31 03:25:00,54.7,36.3,30.02,NW,321,8.0,8.0,50,0.00,,,0.00,meteohub,2013-07-31 09:25:00,
2013-07-31 03:30:00,54.5,36.7,30.02,NNW,327,7.0,8.0,51,0.00,,,0.00,meteohub,2013-07-31 09:30:00,
2013-07-31 03:35:00,54.1,36.3,30.03,NNW,332,6.0,10.0,51,0.00,,,0.00,meteohub,2013-07-31 09:35:00,
2013-07-31 03:40:00,53.8,36.1,30.02,NW,322,7.0,10.0,51,0.00,,,0.00,meteohub,2013-07-31 09:40:00,
2013-07-31 03:45:00,54.0,36.3,30.03,NNW,336,7.0,10.0,51,0.00,,,0.00,meteohub,2013-07-31 09:45:00,
2013-07-31 03:50:00,54.0,36.3,30.03,NNW,327,6.0,10.0,51,0.00,,,0.00,meteohub,2013-07-31 09:50:00,
2013-07-31 03:55:00,53.8,36.5,30.03,NNW,335,7.0,10.0,52,0.00,,,0.00,meteohub,2013-07-31 09:55:00,
2013-07-31 04:00:00,53.8,36.5,30.03,NW,322,5.0,10.0,52,0.00,,,0.00,meteohub,2013-07-31 10:00:00,
2013-07-31 04:06:00,53.4,37.2,30.03,NW,320,5.0,8.0,54,0.00,,,0.00,meteohub,2013-07-31 10:06:00,
2013-07-31 04:11:00,53.1,37.8,30.03,NW,326,6.0,10.0,56,0.00,,,0.00,meteohub,2013-07-31 10:11:00,
2013-07-31 04:16:00,52.3,38.5,30.04,NW,325,3.0,10.0,59,0.00,,,0.00,meteohub,2013-07-31 10:16:00,
2013-07-31 04:21:00,52.2,38.3,30.04,NNW,328,2.0,10.0,59,0.00,,,0.00,meteohub,2013-07-31 10:21:00,
2013-07-31 04:26:00,52.3,37.9,30.04,NW,326,4.0,8.0,58,0.00,,,0.00,meteohub,2013-07-31 10:26:00,
2013-07-31 04:31:00,52.5,38.1,30.04,NNW,339,3.0,6.0,58,0.00,,,0.00,meteohub,2013-07-31 10:31:00,
2013-07-31 04:36:00,52.2,38.3,30.04,NNW,328,4.0,7.0,59,0.00,,,0.00,meteohub,2013-07-31 10:36:00,
2013-07-31 04:41:00,52.0,38.5,30.04,NNW,329,4.0,7.0,60,0.00,,,0.00,meteohub,2013-07-31 10:41:00,
2013-07-31 04:46:00,51.6,38.1,30.04,NNW,330,3.0,7.0,60,0.00,,,0.00,meteohub,2013-07-31 10:46:00,
2013-07-31 04:51:00,51.4,37.9,30.04,NW,320,3.0,7.0,60,0.00,,,0.00,meteohub,2013-07-31 10:51:00,
2013-07-31 04:56:00,51.6,37.4,30.04,NW,326,3.0,5.0,58,0.00,,,0.00,meteohub,2013-07-31 10:56:00,
2013-07-31 05:02:00,51.8,37.6,30.04,NW,312,1.0,5.0,58,0.00,,,0.00,meteohub,2013-07-31 11:02:00,
2013-07-31 05:07:00,52.2,36.9,30.04,West,281,4.0,4.0,56,0.00,,,0.00,meteohub,2013-07-31 11:07:00,
2013-07-31 05:12:00,52.9,36.7,30.04,WNW,292,1.0,4.0,54,0.00,,,0.00,meteohub,2013-07-31 11:12:00,
2013-07-31 05:17:00,53.4,36.7,30.04,WNW,283,3.0,4.0,53,0.00,,,0.00,meteohub,2013-07-31 11:17:00,
2013-07-31 05:22:00,54.3,36.5,30.04,WNW,295,1.0,4.0,51,0.00,,,0.00,meteohub,2013-07-31 11:22:00,
2013-07-31 05:27:00,53.2,37.0,30.05,NNW,334,1.0,4.0,54,0.00,,,0.00,meteohub,2013-07-31 11:27:00,
2013-07-31 05:32:00,51.8,37.0,30.05,NW,325,3.0,3.0,57,0.00,,,0.00,meteohub,2013-07-31 11:32:00,
2013-07-31 05:37:00,51.4,37.2,30.05,NNW,330,4.0,4.0,58,0.00,,,0.00,meteohub,2013-07-31 11:37:00,
2013-07-31 05:42:00,51.3,37.0,30.05,NNW,335,6.0,6.0,58,0.00,,,0.00,meteohub,2013-07-31 11:42:00,
2013-07-31 05:48:00,51.1,37.8,30.05,NNW,345,6.0,7.0,60,0.00,,,0.00,meteohub,2013-07-31 11:48:00,
2013-07-31 05:53:00,50.7,37.8,30.05,NNW,335,8.0,9.0,61,0.00,,,0.00,meteohub,2013-07-31 11:53:00,
2013-07-31 05:58:00,50.4,38.3,30.06,NNW,332,6.0,9.0,63,0.00,,,0.00,meteohub,2013-07-31 11:58:00,
2013-07-31 06:03:00,50.0,37.9,30.06,NW,321,6.0,9.0,63,0.00,,,0.00,meteohub,2013-07-31 12:03:00,
2013-07-31 06:08:00,49.8,37.8,30.06,NW,307,2.0,8.0,63,0.00,,,0.00,meteohub,2013-07-31 12:08:00,
2013-07-31 06:13:00,49.8,37.8,30.06,NW,322,2.0,8.0,63,0.00,,,0.00,meteohub,2013-07-31 12:13:00,
2013-07-31 06:18:00,50.0,37.6,30.06,NW,324,2.0,7.0,62,0.00,,,0.00,meteohub,2013-07-31 12:18:00,
2013-07-31 06:23:00,49.8,37.4,30.06,NNW,336,4.0,5.0,62,0.00,,,0.00,meteohub,2013-07-31 12:23:00,
2013-07-31 06:28:00,50.2,37.6,30.06,NNW,333,4.0,5.0,62,0.00,,,0.00,meteohub,2013-07-31 12:28:00,
2013-07-31 06:33:00,50.4,37.8,30.06,NW,319,5.0,6.0,62,0.00,,,0.00,meteohub,2013-07-31 12:33:00,
2013-07-31 06:39:00,50.2,37.6,30.06,North,356,6.0,6.0,62,0.00,,,0.00,meteohub,2013-07-31 12:39:00,
2013-07-31 06:44:00,50.4,38.7,30.06,NNW,333,5.0,7.0,64,0.00,,,0.00,meteohub,2013-07-31 12:44:00,
2013-07-31 06:49:00,50.5,38.8,30.06,NNW,337,6.0,10.0,64,0.00,,,0.00,meteohub,2013-07-31 12:49:00,
2013-07-31 06:54:00,50.5,39.6,30.06,NNW,329,6.0,10.0,66,0.00,,,0.00,meteohub,2013-07-31 12:54:00,
2013-07-31 06:59:00,50.5,39.9,30.06,NW,322,9.0,10.0,67,0.00,,,0.00,meteohub,2013-07-31 12:59:00,
2013-07-31 07:04:00,50.5,40.5,30.06,NNW,333,6.0,11.0,68,0.00,,,0.00,meteohub,2013-07-31 13:04:00,
2013-07-31 07:09:00,50.7,40.5,30.06,NNW,347,6.0,11.0,68,0.00,,,0.00,meteohub,2013-07-31 13:09:00,
2013-07-31 07:15:00,51.1,40.5,30.06,NW,316,6.0,11.0,67,0.00,,,0.00,meteohub,2013-07-31 13:15:00,
2013-07-31 07:20:00,51.4,40.8,30.06,NNW,330,7.0,10.0,67,0.00,,,0.00,meteohub,2013-07-31 13:20:00,
2013-07-31 07:25:00,52.0,41.0,30.06,NNW,342,5.0,10.0,66,0.00,,,0.00,meteohub,2013-07-31 13:25:00,
2013-07-31 07:30:00,52.5,40.3,30.05,NW,304,3.0,10.0,63,0.00,,,0.00,meteohub,2013-07-31 13:30:00,
2013-07-31 07:35:00,53.4,40.3,30.06,NNW,327,3.0,10.0,61,0.00,,,0.00,meteohub,2013-07-31 13:35:00,
2013-07-31 07:40:00,54.3,39.9,30.06,NW,312,3.0,7.0,58,0.00,,,0.00,meteohub,2013-07-31 13:40:00,
2013-07-31 07:45:00,54.9,39.9,30.06,NW,321,2.0,6.0,57,0.00,,,0.00,meteohub,2013-07-31 13:45:00,
2013-07-31 07:50:00,55.8,40.8,30.06,North,352,6.0,6.0,57,0.00,,,0.00,meteohub,2013-07-31 13:50:00,
2013-07-31 07:55:00,55.9,41.0,30.06,NNW,339,6.0,8.0,57,0.00,,,0.00,meteohub,2013-07-31 13:55:00,
2013-07-31 08:00:00,56.1,41.2,30.06,NW,325,8.0,8.0,57,0.00,,,0.00,meteohub,2013-07-31 14:00:00,
2013-07-31 08:06:00,56.1,41.5,30.06,NNW,340,8.0,10.0,58,0.00,,,0.00,meteohub,2013-07-31 14:06:00,
2013-07-31 08:11:00,56.5,41.9,30.06,North,11,6.0,10.0,58,0.00,,,0.00,meteohub,2013-07-31 14:11:00,
2013-07-31 08:16:00,56.5,41.4,30.06,NNW,336,2.0,10.0,57,0.00,,,0.00,meteohub,2013-07-31 14:16:00,
2013-07-31 08:21:00,57.4,42.3,30.06,NNE,32,5.0,9.0,57,0.00,,,0.00,meteohub,2013-07-31 14:21:00,
2013-07-31 08:26:00,57.7,42.6,30.06,NW,323,2.0,8.0,57,0.00,,,0.00,meteohub,2013-07-31 14:26:00,
2013-07-31 08:31:00,58.3,42.6,30.06,NNW,336,2.0,6.0,56,0.00,,,0.00,meteohub,2013-07-31 14:31:00,
2013-07-31 08:37:00,58.8,42.6,30.06,NNE,30,2.0,6.0,55,0.00,,,0.00,meteohub,2013-07-31 14:37:00,
2013-07-31 08:42:00,59.0,41.4,30.06,NNE,32,2.0,5.0,52,0.00,,,0.00,meteohub,2013-07-31 14:42:00,
2013-07-31 08:47:00,59.2,42.1,30.06,North,357,2.0,5.0,53,0.00,,,0.00,meteohub,2013-07-31 14:47:00,
2013-07-31 08:52:00,59.9,43.2,30.06,North,9,2.0,5.0,54,0.00,,,0.00,meteohub,2013-07-31 14:52:00,
2013-07-31 08:57:00,60.6,43.3,30.06,NE,38,4.0,4.0,53,0.00,,,0.00,meteohub,2013-07-31 14:57:00,
2013-07-31 09:02:00,61.0,41.2,30.06,ENE,58,2.0,5.0,48,0.00,,,0.00,meteohub,2013-07-31 15:02:00,
2013-07-31 09:07:00,61.5,43.2,30.06,NW,316,1.0,6.0,51,0.00,,,0.00,meteohub,2013-07-31 15:07:00,
2013-07-31 09:12:00,62.4,44.1,30.06,NE,53,0.0,6.0,51,0.00,,,0.00,meteohub,2013-07-31 15:12:00,
2013-07-31 09:17:00,63.3,43.9,30.06,SE,144,1.0,6.0,49,0.00,,,0.00,meteohub,2013-07-31 15:17:00,
2013-07-31 09:22:00,63.1,43.2,30.05,ESE,103,1.0,5.0,48,0.00,,,0.00,meteohub,2013-07-31 15:22:00,
2013-07-31 09:28:00,63.7,43.2,30.05,ESE,117,2.0,5.0,47,0.00,,,0.00,meteohub,2013-07-31 15:28:00,
2013-07-31 09:33:00,64.6,41.5,30.05,SSE,167,2.0,5.0,43,0.00,,,0.00,meteohub,2013-07-31 15:33:00,
2013-07-31 09:38:00,65.7,41.4,30.05,ESE,115,1.0,5.0,41,0.00,,,0.00,meteohub,2013-07-31 15:38:00,
2013-07-31 09:43:00,66.4,39.4,30.04,SSE,150,2.0,3.0,37,0.00,,,0.00,meteohub,2013-07-31 15:43:00,
2013-07-31 09:48:00,66.7,41.7,30.04,SSE,150,3.0,4.0,40,0.00,,,0.00,meteohub,2013-07-31 15:48:00,
2013-07-31 09:53:00,66.6,43.3,30.04,SSE,159,3.0,5.0,43,0.00,,,0.00,meteohub,2013-07-31 15:53:00,
2013-07-31 09:58:00,66.7,42.3,30.04,SE,146,6.0,6.0,41,0.00,,,0.00,meteohub,2013-07-31 15:58:00,
2013-07-31 10:03:00,66.2,40.5,30.04,SE,127,4.0,7.0,39,0.00,,,0.00,meteohub,2013-07-31 16:03:00,
2013-07-31 10:09:00,66.0,38.3,30.04,SSE,162,4.0,7.0,36,0.00,,,0.00,meteohub,2013-07-31 16:09:00,
2013-07-31 10:14:00,67.1,39.9,30.03,SSE,153,2.0,7.0,37,0.00,,,0.00,meteohub,2013-07-31 16:14:00,
2013-07-31 10:19:00,67.5,40.3,30.03,SSE,155,3.0,6.0,37,0.00,,,0.00,meteohub,2013-07-31 16:19:00,
2013-07-31 10:24:00,67.5,38.8,30.03,ESE,122,3.0,6.0,35,0.00,,,0.00,meteohub,2013-07-31 16:24:00,
2013-07-31 10:29:00,68.2,39.6,30.03,SSE,166,2.0,6.0,35,0.00,,,0.00,meteohub,2013-07-31 16:29:00,
2013-07-31 10:34:00,68.7,40.6,30.03,WSW,239,3.0,5.0,36,0.00,,,0.00,meteohub,2013-07-31 16:34:00,
2013-07-31 10:39:00,69.6,41.5,30.03,East,94,2.0,5.0,36,0.00,,,0.00,meteohub,2013-07-31 16:39:00,
2013-07-31 10:44:00,70.0,41.0,30.02,SE,145,3.0,5.0,35,0.00,,,0.00,meteohub,2013-07-31 16:44:00,
2013-07-31 10:50:00,70.3,39.9,30.02,ESE,110,5.0,5.0,33,0.00,,,0.00,meteohub,2013-07-31 16:50:00,
2013-07-31 10:55:00,69.6,39.2,30.02,East,94,3.0,6.0,33,0.00,,,0.00,meteohub,2013-07-31 16:55:00,
2013-07-31 11:00:00,70.5,41.5,30.02,ENE,75,1.0,7.0,35,0.00,,,0.00,meteohub,2013-07-31 17:00:00,
2013-07-31 11:02:00,71.4,41.5,30.02,NE,41,0.0,7.0,34,0.00,,,0.00,meteohub,2013-07-31 17:02:00,
2013-07-31 11:07:00,71.4,40.1,30.02,SE,127,4.0,7.0,32,0.00,,,0.00,meteohub,2013-07-31 17:07:00,
2013-07-31 11:12:00,72.0,39.7,30.01,SSE,155,4.0,7.0,31,0.00,,,0.00,meteohub,2013-07-31 17:12:00,
2013-07-31 11:17:00,71.8,35.1,30.01,ESE,113,2.0,7.0,26,0.00,,,0.00,meteohub,2013-07-31 17:17:00,
2013-07-31 11:23:00,72.5,39.4,30.01,NE,51,1.0,7.0,30,0.00,,,0.00,meteohub,2013-07-31 17:23:00,
2013-07-31 11:28:00,73.2,37.2,30.01,SE,136,5.0,7.0,27,0.00,,,0.00,meteohub,2013-07-31 17:28:00,
2013-07-31 11:33:00,73.8,37.8,30.01,ENE,68,3.0,6.0,27,0.00,,,0.00,meteohub,2013-07-31 17:33:00,
2013-07-31 11:38:00,73.8,38.7,30.00,SSE,159,2.0,7.0,28,0.00,,,0.00,meteohub,2013-07-31 17:38:00,
2013-07-31 11:44:00,73.9,36.9,30.00,NE,46,2.0,7.0,26,0.00,,,0.00,meteohub,2013-07-31 17:44:00,
2013-07-31 11:49:00,73.8,37.8,30.00,NNW,328,2.0,7.0,27,0.00,,,0.00,meteohub,2013-07-31 17:49:00,
2013-07-31 11:54:00,74.5,38.3,30.00,SE,127,0.0,6.0,27,0.00,,,0.00,meteohub,2013-07-31 17:54:00,
2013-07-31 11:59:00,74.8,35.6,29.99,NNW,328,3.0,5.0,24,0.00,,,0.00,meteohub,2013-07-31 17:59:00,
2013-07-31 12:04:00,74.7,36.5,29.99,NNE,19,4.0,5.0,25,0.00,,,0.00,meteohub,2013-07-31 18:04:00,
2013-07-31 12:09:00,73.8,34.7,29.99,NNE,29,4.0,5.0,24,0.00,,,0.00,meteohub,2013-07-31 18:09:00,
2013-07-31 12:14:00,73.6,35.6,29.99,NNW,339,3.0,8.0,25,0.00,,,0.00,meteohub,2013-07-31 18:14:00,
2013-07-31 12:20:00,73.6,32.4,29.99,NW,323,4.0,8.0,22,0.00,,,0.00,meteohub,2013-07-31 18:20:00,
2013-07-31 12:25:00,74.1,37.0,29.98,NNE,25,4.0,8.0,26,0.00,,,0.00,meteohub,2013-07-31 18:25:00,
2013-07-31 12:30:00,74.5,35.2,29.98,NNE,30,5.0,7.0,24,0.00,,,0.00,meteohub,2013-07-31 18:30:00,
2013-07-31 12:35:00,74.1,35.1,29.98,NE,54,7.0,7.0,24,0.00,,,0.00,meteohub,2013-07-31 18:35:00,
2013-07-31 12:40:00,74.1,35.1,29.98,NE,45,6.0,7.0,24,0.00,,,0.00,meteohub,2013-07-31 18:40:00,
2013-07-31 12:45:00,73.9,34.9,29.98,WNW,301,4.0,10.0,24,0.00,,,0.00,meteohub,2013-07-31 18:45:00,
2013-07-31 12:50:00,74.5,34.3,29.98,SE,142,0.0,10.0,23,0.00,,,0.00,meteohub,2013-07-31 18:50:00,
2013-07-31 12:56:00,75.7,35.2,29.97,NE,39,6.0,8.0,23,0.00,,,0.00,meteohub,2013-07-31 18:56:00,
2013-07-31 13:01:00,75.9,34.3,29.97,SE,127,5.0,10.0,22,0.00,,,0.00,meteohub,2013-07-31 19:01:00,
2013-07-31 13:06:00,75.9,33.3,29.97,SE,130,6.0,10.0,21,0.00,,,0.00,meteohub,2013-07-31 19:06:00,
2013-07-31 13:11:00,75.9,33.3,29.96,ENE,60,3.0,10.0,21,0.00,,,0.00,meteohub,2013-07-31 19:11:00,
2013-07-31 13:16:00,75.7,31.8,29.96,NE,39,1.0,10.0,20,0.00,,,0.00,meteohub,2013-07-31 19:16:00,
2013-07-31 13:21:00,76.3,32.2,29.96,SE,143,3.0,10.0,20,0.00,,,0.00,meteohub,2013-07-31 19:21:00,
2013-07-31 13:26:00,77.2,33.1,29.96,North,11,2.0,9.0,20,0.00,,,0.00,meteohub,2013-07-31 19:26:00,
2013-07-31 13:31:00,77.2,34.2,29.96,NE,56,3.0,9.0,21,0.00,,,0.00,meteohub,2013-07-31 19:31:00,
2013-07-31 13:37:00,77.5,34.5,29.96,SSE,148,7.0,9.0,21,0.00,,,0.00,meteohub,2013-07-31 19:37:00,
2013-07-31 13:42:00,77.4,34.3,29.95,SSE,152,5.0,13.0,21,0.00,,,0.00,meteohub,2013-07-31 19:42:00,
2013-07-31 13:47:00,78.3,35.1,29.95,ESE,122,4.0,13.0,21,0.00,,,0.00,meteohub,2013-07-31 19:47:00,
2013-07-31 13:52:00,78.4,35.2,29.95,South,187,6.0,13.0,21,0.00,,,0.00,meteohub,2013-07-31 19:52:00,
2013-07-31 13:57:00,79.0,35.8,29.95,South,183,3.0,10.0,21,0.00,,,0.00,meteohub,2013-07-31 19:57:00,
2013-07-31 14:02:00,79.3,36.0,29.94,SE,137,9.0,10.0,21,0.00,,,0.00,meteohub,2013-07-31 20:02:00,
2013-07-31 14:07:00,79.9,35.2,29.94,SSE,158,4.0,10.0,20,0.00,,,0.00,meteohub,2013-07-31 20:07:00,
2013-07-31 14:13:00,79.5,33.6,29.94,ESE,118,8.0,11.0,19,0.00,,,0.00,meteohub,2013-07-31 20:13:00,
2013-07-31 14:18:00,79.2,34.7,29.94,ESE,106,4.0,12.0,20,0.00,,,0.00,meteohub,2013-07-31 20:18:00,
2013-07-31 14:23:00,79.5,33.6,29.93,WSW,248,4.0,12.0,19,0.00,,,0.00,meteohub,2013-07-31 20:23:00,
2013-07-31 14:28:00,79.3,34.7,29.93,SSE,165,12.0,12.0,20,0.00,,,0.00,meteohub,2013-07-31 20:28:00,
2013-07-31 14:33:00,78.3,35.1,29.93,South,174,5.0,13.0,21,0.00,,,0.00,meteohub,2013-07-31 20:33:00,
2013-07-31 14:38:00,77.5,34.5,29.93,SW,219,5.0,14.0,21,0.00,,,0.00,meteohub,2013-07-31 20:38:00,
2013-07-31 14:43:00,78.1,36.1,29.92,SSE,165,4.0,14.0,22,0.00,,,0.00,meteohub,2013-07-31 20:43:00,
2013-07-31 14:49:00,78.1,33.8,29.92,South,173,3.0,14.0,20,0.00,,,0.00,meteohub,2013-07-31 20:49:00,
2013-07-31 14:54:00,78.3,35.1,29.91,SSE,167,1.0,10.0,21,0.00,,,0.00,meteohub,2013-07-31 20:54:00,
2013-07-31 14:59:00,78.4,35.2,29.91,ESE,120,5.0,7.0,21,0.00,,,0.00,meteohub,2013-07-31 20:59:00,
2013-07-31 15:04:00,77.4,33.1,29.91,SSE,148,5.0,7.0,20,0.00,,,0.00,meteohub,2013-07-31 21:04:00,
2013-07-31 15:09:00,76.5,34.9,29.91,ESE,117,7.0,9.0,22,0.00,,,0.00,meteohub,2013-07-31 21:09:00,
2013-07-31 15:14:00,76.5,34.9,29.90,ESE,116,5.0,9.0,22,0.00,,,0.00,meteohub,2013-07-31 21:14:00,
2013-07-31 15:19:00,76.1,33.3,29.90,ESE,120,4.0,9.0,21,0.00,,,0.00,meteohub,2013-07-31 21:19:00,
2013-07-31 15:24:00,76.3,36.9,29.90,West,267,4.0,9.0,24,0.00,,,0.00,meteohub,2013-07-31 21:24:00,
2013-07-31 15:29:00,76.5,37.0,29.90,North,8,1.0,8.0,24,0.00,,,0.00,meteohub,2013-07-31 21:29:00,
2013-07-31 15:34:00,76.6,34.9,29.89,NE,44,2.0,7.0,22,0.00,,,0.00,meteohub,2013-07-31 21:34:00,
2013-07-31 15:40:00,76.3,36.9,29.89,ENE,73,6.0,6.0,24,0.00,,,0.00,meteohub,2013-07-31 21:40:00,
2013-07-31 15:45:00,76.6,37.2,29.88,NW,307,2.0,8.0,24,0.00,,,0.00,meteohub,2013-07-31 21:45:00,
2013-07-31 15:50:00,77.5,37.9,29.88,ENE,70,8.0,8.0,24,0.00,,,0.00,meteohub,2013-07-31 21:50:00,
2013-07-31 15:56:00,78.6,36.7,29.88,ENE,67,3.0,8.0,22,0.00,,,0.00,meteohub,2013-07-31 21:56:00,
2013-07-31 16:01:00,78.4,37.6,29.88,SSE,156,5.0,11.0,23,0.00,,,0.00,meteohub,2013-07-31 22:01:00,
2013-07-31 16:06:00,78.4,36.5,29.87,ENE,73,2.0,11.0,22,0.00,,,0.00,meteohub,2013-07-31 22:06:00,
2013-07-31 16:11:00,78.1,36.1,29.87,ENE,73,2.0,11.0,22,0.00,,,0.00,meteohub,2013-07-31 22:11:00,
2013-07-31 16:16:00,79.3,36.0,29.87,East,88,5.0,6.0,21,0.00,,,0.00,meteohub,2013-07-31 22:16:00,
2013-07-31 16:21:00,79.0,34.5,29.86,East,97,3.0,6.0,20,0.00,,,0.00,meteohub,2013-07-31 22:21:00,
2013-07-31 16:27:00,78.6,34.2,29.86,ENE,62,1.0,6.0,20,0.00,,,0.00,meteohub,2013-07-31 22:27:00,
2013-07-31 16:32:00,78.8,35.6,29.86,NE,46,5.0,9.0,21,0.00,,,0.00,meteohub,2013-07-31 22:32:00,
2013-07-31 16:37:00,79.0,33.3,29.86,ESE,114,1.0,9.0,19,0.00,,,0.00,meteohub,2013-07-31 22:37:00,
2013-07-31 16:42:00,78.1,33.8,29.86,SE,143,6.0,9.0,20,0.00,,,0.00,meteohub,2013-07-31 22:42:00,
2013-07-31 16:47:00,78.3,34.0,29.85,ESE,122,4.0,8.0,20,0.00,,,0.00,meteohub,2013-07-31 22:47:00,
2013-07-31 16:52:00,79.2,34.7,29.85,SSE,153,6.0,10.0,20,0.00,,,0.00,meteohub,2013-07-31 22:52:00,
2013-07-31 16:57:00,79.9,34.0,29.85,SSE,149,4.0,10.0,19,0.00,,,0.00,meteohub,2013-07-31 22:57:00,
2013-07-31 17:03:00,80.1,35.4,29.85,East,79,2.0,8.0,20,0.00,,,0.00,meteohub,2013-07-31 23:03:00,
2013-07-31 17:08:00,80.1,35.4,29.85,NE,37,4.0,6.0,20,0.00,,,0.00,meteohub,2013-07-31 23:08:00,
2013-07-31 17:13:00,80.1,34.2,29.85,ENE,60,4.0,6.0,19,0.00,,,0.00,meteohub,2013-07-31 23:13:00,
2013-07-31 17:19:00,79.9,35.2,29.85,NE,46,3.0,6.0,20,0.00,,,0.00,meteohub,2013-07-31 23:19:00,
2013-07-31 17:24:00,79.9,35.2,29.85,ESE,110,4.0,6.0,20,0.00,,,0.00,meteohub,2013-07-31 23:24:00,
2013-07-31 17:29:00,79.9,34.0,29.84,NE,36,2.0,6.0,19,0.00,,,0.00,meteohub,2013-07-31 23:29:00,
2013-07-31 17:34:00,79.9,35.2,29.84,ENE,77,4.0,7.0,20,0.00,,,0.00,meteohub,2013-07-31 23:34:00,
2013-07-31 17:39:00,79.7,35.1,29.84,ESE,105,3.0,8.0,20,0.00,,,0.00,meteohub,2013-07-31 23:39:00,
2013-07-31 17:44:00,79.9,35.2,29.84,ESE,123,4.0,9.0,20,0.00,,,0.00,meteohub,2013-07-31 23:44:00,
2013-07-31 17:49:00,80.2,35.6,29.84,East,88,5.0,9.0,20,0.00,,,0.00,meteohub,2013-07-31 23:49:00,
2013-07-31 17:55:00,80.2,34.2,29.84,SSE,167,4.0,9.0,19,0.00,,,0.00,meteohub,2013-07-31 23:55:00,
2013-07-31 18:00:00,80.6,34.5,29.83,SSW,212,4.0,7.0,19,0.00,,,0.00,meteohub,2013-08-01 00:00:00,
2013-07-31 18:05:00,80.2,32.9,29.83,SW,232,0.0,7.0,18,0.00,,,0.00,meteohub,2013-08-01 00:05:00,
2013-07-31 18:10:00,79.5,33.6,29.83,SW,217,2.0,7.0,19,0.00,,,0.00,meteohub,2013-08-01 00:10:00,
2013-07-31 18:15:00,78.4,32.7,29.83,East,80,2.0,6.0,19,0.00,,,0.00,meteohub,2013-08-01 00:15:00,
2013-07-31 18:21:00,78.3,32.5,29.83,ENE,76,0.0,6.0,19,0.00,,,0.00,meteohub,2013-08-01 00:21:00,
2013-07-31 18:26:00,79.0,34.5,29.83,NE,34,5.0,5.0,20,0.00,,,0.00,meteohub,2013-08-01 00:26:00,
2013-07-31 18:31:00,78.8,35.6,29.83,NW,325,4.0,7.0,21,0.00,,,0.00,meteohub,2013-08-01 00:31:00,
2013-07-31 18:36:00,78.4,38.7,29.83,NNW,334,6.0,9.0,24,0.00,,,0.00,meteohub,2013-08-01 00:36:00,
2013-07-31 18:41:00,77.7,37.0,29.83,NNW,333,5.0,10.0,23,0.00,,,0.00,meteohub,2013-08-01 00:41:00,
2013-07-31 18:46:00,77.7,37.0,29.83,NE,36,6.0,10.0,23,0.00,,,0.00,meteohub,2013-08-01 00:46:00,
2013-07-31 18:52:00,77.5,35.8,29.83,North,351,5.0,10.0,22,0.00,,,0.00,meteohub,2013-08-01 00:52:00,
2013-07-31 18:57:00,77.5,36.9,29.83,North,8,2.0,8.0,23,0.00,,,0.00,meteohub,2013-08-01 00:57:00,
2013-07-31 19:02:00,77.5,37.9,29.83,NNE,27,4.0,8.0,24,0.00,,,0.00,meteohub,2013-08-01 01:02:00,
2013-07-31 19:07:00,77.5,34.5,29.83,North,11,4.0,8.0,21,0.00,,,0.00,meteohub,2013-08-01 01:07:00,
2013-07-31 19:12:00,77.4,36.7,29.83,NNE,33,4.0,7.0,23,0.00,,,0.00,meteohub,2013-08-01 01:12:00,
2013-07-31 19:17:00,77.2,35.4,29.83,NE,40,5.0,7.0,22,0.00,,,0.00,meteohub,2013-08-01 01:17:00,
2013-07-31 19:22:00,76.8,36.1,29.83,NNE,29,3.0,7.0,23,0.00,,,0.00,meteohub,2013-08-01 01:22:00,
2013-07-31 19:27:00,76.5,36.0,29.83,NE,44,3.0,6.0,23,0.00,,,0.00,meteohub,2013-08-01 01:27:00,
2013-07-31 19:32:00,76.6,37.2,29.83,North,356,4.0,6.0,24,0.00,,,0.00,meteohub,2013-08-01 01:32:00,
2013-07-31 19:37:00,76.3,37.9,29.83,NNW,347,2.0,5.0,25,0.00,,,0.00,meteohub,2013-08-01 01:37:00,
2013-07-31 19:43:00,75.9,37.6,29.83,NNE,30,3.0,5.0,25,0.00,,,0.00,meteohub,2013-08-01 01:43:00,
2013-07-31 19:48:00,75.6,39.2,29.83,NW,324,2.0,5.0,27,0.00,,,0.00,meteohub,2013-08-01 01:48:00,
2013-07-31 19:53:00,74.1,39.9,29.83,NW,326,2.0,6.0,29,0.00,,,0.00,meteohub,2013-08-01 01:53:00,
2013-07-31 19:58:00,73.2,39.0,29.83,WNW,293,2.0,6.0,29,0.00,,,0.00,meteohub,2013-08-01 01:58:00,
2013-07-31 20:03:00,72.7,35.8,29.83,WNW,288,2.0,5.0,26,0.00,,,0.00,meteohub,2013-08-01 02:03:00,
2013-07-31 20:08:00,72.7,34.9,29.83,West,280,4.0,4.0,25,0.00,,,0.00,meteohub,2013-08-01 02:08:00,
2013-07-31 20:14:00,71.8,36.0,29.83,WNW,291,3.0,4.0,27,0.00,,,0.00,meteohub,2013-08-01 02:14:00,
2013-07-31 20:19:00,70.9,34.3,29.83,NW,308,4.0,6.0,26,0.00,,,0.00,meteohub,2013-08-01 02:19:00,
2013-07-31 20:24:00,71.2,32.5,29.83,WNW,300,3.0,6.0,24,0.00,,,0.00,meteohub,2013-08-01 02:24:00,
2013-07-31 20:29:00,71.8,33.1,29.84,WNW,293,4.0,6.0,24,0.00,,,0.00,meteohub,2013-08-01 02:29:00,
2013-07-31 20:34:00,71.8,33.1,29.84,West,281,4.0,7.0,24,0.00,,,0.00,meteohub,2013-08-01 02:34:00,
2013-07-31 20:39:00,71.2,33.6,29.84,West,276,5.0,7.0,25,0.00,,,0.00,meteohub,2013-08-01 02:39:00,
2013-07-31 20:45:00,70.3,33.8,29.84,WSW,243,6.0,8.0,26,0.00,,,0.00,meteohub,2013-08-01 02:45:00,
2013-07-31 20:50:00,70.2,33.6,29.84,West,271,6.0,9.0,26,0.00,,,0.00,meteohub,2013-08-01 02:50:00,
2013-07-31 20:55:00,70.3,33.8,29.84,West,278,6.0,11.0,26,0.00,,,0.00,meteohub,2013-08-01 02:55:00,
2013-07-31 21:00:00,69.8,33.4,29.84,NW,304,4.0,11.0,26,0.00,,,0.00,meteohub,2013-08-01 03:00:00,
2013-07-31 21:05:00,69.3,33.8,29.85,WNW,301,3.0,11.0,27,0.00,,,0.00,meteohub,2013-08-01 03:05:00,
2013-07-31 21:10:00,68.2,36.3,29.85,NE,44,3.0,8.0,31,0.00,,,0.00,meteohub,2013-08-01 03:10:00,
2013-07-31 21:15:00,66.7,36.7,29.86,SSW,193,3.0,8.0,33,0.00,,,0.00,meteohub,2013-08-01 03:15:00,
2013-07-31 21:20:00,66.7,36.0,29.86,SSE,163,3.0,6.0,32,0.00,,,0.00,meteohub,2013-08-01 03:20:00,
2013-07-31 21:25:00,66.4,36.3,29.87,South,176,2.0,6.0,33,0.00,,,0.00,meteohub,2013-08-01 03:25:00,
2013-07-31 21:30:00,66.4,36.3,29.87,SW,229,3.0,6.0,33,0.00,,,0.00,meteohub,2013-08-01 03:30:00,
2013-07-31 21:35:00,66.6,36.5,29.87,SW,218,5.0,6.0,33,0.00,,,0.00,meteohub,2013-08-01 03:35:00,
2013-07-31 21:41:00,66.9,37.6,29.87,SW,231,5.0,6.0,34,0.00,,,0.00,meteohub,2013-08-01 03:41:00,
2013-07-31 21:46:00,67.5,41.7,29.88,SSW,208,5.0,8.0,39,0.00,,,0.00,meteohub,2013-08-01 03:46:00,
2013-07-31 21:51:00,67.5,43.0,29.88,South,179,2.0,8.0,41,0.00,,,0.00,meteohub,2013-08-01 03:51:00,
2013-07-31 21:56:00,67.3,44.6,29.88,SW,233,5.0,9.0,44,0.00,,,0.00,meteohub,2013-08-01 03:56:00,
2013-07-31 22:01:00,67.1,45.0,29.88,WSW,239,7.0,11.0,45,0.00,,,0.00,meteohub,2013-08-01 04:01:00,
2013-07-31 22:02:00,66.9,45.5,29.88,West,264,4.0,11.0,46,0.00,,,0.00,meteohub,2013-08-01 04:02:00,
2013-07-31 22:04:00,66.9,46.0,29.88,SSW,207,4.0,11.0,47,0.00,,,0.00,meteohub,2013-08-01 04:04:00,
2013-07-31 22:05:00,66.9,46.0,29.88,South,179,2.0,11.0,47,0.00,,,0.00,meteohub,2013-08-01 04:05:00,
2013-07-31 22:07:00,66.9,46.0,29.88,SW,226,3.0,11.0,47,0.00,,,0.00,meteohub,2013-08-01 04:07:00,
2013-07-31 22:12:00,66.7,46.4,29.88,SSW,195,6.0,12.0,48,0.00,,,0.00,meteohub,2013-08-01 04:12:00,
2013-07-31 22:17:00,66.4,47.1,29.88,SW,223,5.0,12.0,50,0.00,,,0.00,meteohub,2013-08-01 04:17:00,
2013-07-31 22:23:00,66.2,46.9,29.88,SW,216,7.0,13.0,50,0.00,,,0.00,meteohub,2013-08-01 04:23:00,
2013-07-31 22:28:00,65.8,47.1,29.87,SSW,208,6.0,13.0,51,0.00,,,0.00,meteohub,2013-08-01 04:28:00,
2013-07-31 22:33:00,65.5,47.5,29.87,West,278,3.0,13.0,52,0.00,,,0.00,meteohub,2013-08-01 04:33:00,
2013-07-31 22:38:00,65.3,47.3,29.87,SSW,204,9.0,12.0,52,0.00,,,0.00,meteohub,2013-08-01 04:38:00,
2013-07-31 22:43:00,65.1,47.5,29.87,South,181,6.0,12.0,53,0.00,,,0.00,meteohub,2013-08-01 04:43:00,
2013-07-31 22:48:00,64.9,47.5,29.87,SW,222,6.0,12.0,53,0.00,,,0.00,meteohub,2013-08-01 04:48:00,
2013-07-31 22:53:00,64.9,47.8,29.87,South,170,5.0,12.0,54,0.00,,,0.00,meteohub,2013-08-01 04:53:00,
2013-07-31 22:58:00,64.8,47.7,29.86,SW,216,7.0,12.0,54,0.00,,,0.00,meteohub,2013-08-01 04:58:00,
2013-07-31 23:04:00,64.6,47.5,29.87,WSW,249,2.0,13.0,54,0.00,,,0.00,meteohub,2013-08-01 05:04:00,
2013-07-31 23:10:00,64.4,47.8,29.86,SW,229,6.0,13.0,55,0.00,,,0.00,meteohub,2013-08-01 05:10:00,
2013-07-31 23:15:00,64.4,47.8,29.86,South,186,2.0,13.0,55,0.00,,,0.00,meteohub,2013-08-01 05:15:00,
2013-07-31 23:20:00,64.4,47.8,29.86,SW,229,9.0,12.0,55,0.00,,,0.00,meteohub,2013-08-01 05:20:00,
2013-07-31 23:25:00,64.2,47.7,29.86,WSW,253,6.0,12.0,55,0.00,,,0.00,meteohub,2013-08-01 05:25:00,
2013-07-31 23:30:00,64.2,47.7,29.86,WSW,243,7.0,11.0,55,0.00,,,0.00,meteohub,2013-08-01 05:30:00,
2013-07-31 23:35:00,64.2,47.7,29.86,SW,218,6.0,11.0,55,0.00,,,0.00,meteohub,2013-08-01 05:35:00,
2013-07-31 23:40:00,64.0,48.0,29.86,WSW,240,8.0,11.0,56,0.00,,,0.00,meteohub,2013-08-01 05:40:00,
2013-07-31 23:46:00,64.0,48.0,29.86,SSW,195,6.0,11.0,56,0.00,,,0.00,meteohub,2013-08-01 05:46:00,
2013-07-31 23:51:00,63.9,47.8,29.86,SSW,204,6.0,12.0,56,0.00,,,0.00,meteohub,2013-08-01 05:51:00,
2013-07-31 23:56:00,63.7,48.2,29.86,SSE,166,6.0,12.0,57,0.00,,,0.00,meteohub,2013-08-01 05:56:00,